Ride Results

Qld State Championships (09-08-2013)
Ride distance: 100.0 km

Outcomes - Qld State Championships (09-08-2013)
Division No. of Entries Retired / DNE Completed Withdrawn Ineligible V/O Percentage Completed
HW 7 - 5 - - 2 71.43%
MW 17 - 14 - - 3 82.35%
LW 19 - 17 1 - 1 89.47%
JN 22 - 21 1 - - 95.45%
Totals 65 - 57 2 - 6 87.69%
Results - Qld State Championships (09-08-2013)
No. Rider Horse Place Time Leg Speeds Total
Km/Hr
H/R bpm
Heavyweight
129 Rod Strahan Suncrest Sadaqa's Pride 1 (BC) 6:29:56 14.7, 16.2, 15.3 15.39 32, 39, 41, 44 (Avg:41)
120 Mark Nimon Abbeywood Mr Jack 2 6:36:45 15.2, 15.5, 14.3 15.12 32, 45, 48, 55 (Avg:49)
165 Liz Terry Ausden Illusion 3 6:45:45 14.8, 14.8, 14.5 14.79 34, 40, 49, 44 (Avg:44)
150 Danielle Cullen Mt Eerwah Silver Arafina 4 7:38:59 13.4, 13.7, 11.8 13.07 28, 31, 37, 38 (Avg:35)
102 Dan Winkel Glenewan Spring 5 7:39:25 13.2, 13.9, 11.6 13.06 36, 47, 46, 49 (Avg:47)
108 Gary Surch Azale Anter Lame L3 0:00:00 20.3, 15.9, 12.6 - 36, 46, 45, 55 (Avg:48)
105 Sean Field Jaffa Lame L2 0:00:00 13.5, 15.4 - 32, 44, 42 (Avg:43)
Middleweight
103 Adam Garvin Manet Ibn Rashan 1 (BC) 4:54:00 21.0, 20.2, 19.6 20.41 36, 47, 52, 48 (Avg:49)
158 Renae Kuhn Bourhani Albaraq 2 4:54:05 21.2, 20.1, 19.4 20.40 35, 46, 48, 51 (Avg:48)
162 Jess King Polly 3 5:17:15 18.3, 18.7, 20.2 18.91 34, 40, 45, 43 (Avg:42)
151 Robyn Pembroke Mt Eerwah Nikita 4 7:38:59 13.4, 13.8, 11.7 13.07 28, 36, 41, 41 (Avg:39)
152 Jacqui Wilson-Smith Mt Eerwah Romonous 4 7:38:59 13.3, 13.8, 11.8 13.07 35, 42, 45, 46 (Avg:44)
109 Cassie Saunders Steel Poppy Regent 6 8:10:31 13.3, 12.4, 10.5 12.23 38, 43, 47, 46 (Avg:45)
138 Brook Sample Brookleigh Casanova 7 8:37:00 11.1, 12.8, 10.8 11.61 46, 46, 52, 49 (Avg:49)
104 Jess Fuhlbohm Captains Creek Corporal 8 8:41:06 11.4, 11.4, 11.7 11.51 35, 42, 44, 52 (Avg:46)
154 Wendy Butler Oscar De La Hoya 9 8:44:10 13.1, 11.2, 9.6 11.45 32, 47, 48, 49 (Avg:48)
130 Ruth Dixon El Romero 10 8:44:13 12.4, 11.9, 9.6 11.45 28, 42, 48, 39 (Avg:43)
157 Angela Head Flemingo Makkaddie 11 8:46:44 10.3, 13.7, 10.5 11.39 42, 46, 48, 50 (Avg:48)
133 Bridget Nottle Zerox te 12 9:43:13 10.9, 10.8, 8.7 10.29 32, 49, 41, 42 (Avg:44)
122 Sonya Gillham Bellarine Grey Pasha 13 9:44:00 12.4, 10.2, 7.9 10.27 31, 41, 45, 46 (Avg:44)
155 Olga Bartlett Mt Eerwah Anastazia 14 9:58:44 10.0, 9.5, 10.7 10.02 32, 41, 42, 43 (Avg:42)
166 Natashja Burton Taj Miranda Lame L3 0:00:00 18.6, 1.4, 8.1 - 36, 44, 47, 51 (Avg:47)
101 Karen Winkel Xanadu Barabbous Lame L2 0:00:00 13.2, 13.8 - 38, 42, 45 (Avg:43)
121 Yvonne Hain Milgarra Sinzano Lame P/R 0:00:00 - - 33, 44 (Avg:44)
Lightweight
112 Bianca Porter Phox KEI 1 (BC) 4:53:00 20.3, 21.0, 19.9 20.48 44, 47, 46, 52 (Avg:48)
149 Sally Genninges Toad 2 5:19:40 17.6, 20.7, 18.1 18.77 43, 42, 47, 45 (Avg:44)
124 Alyce Capek Gums Kawielie 3 6:00:58 16.2, 17.0, 16.6 16.62 32, 46, 46, 45 (Avg:45)
123 Natasha Willemse Hillbrae Alec 3 6:00:58 16.2, 17.0, 16.6 16.62 32, 46, 44, 41 (Avg:43)
126 Ute Jordan Golden Thunder 5 6:08:00 12.6, 12.2, 214.2 16.30 32, 38, 43, 39 (Avg:40)
153 Stephanie Malmborg Dunbar Coco Chanel 6 7:29:00 14.2, 13.8, 11.7 13.36 37, 43, 44, 45 (Avg:44)
164 Amanda Powell Summit Park Raz 7 7:35:37 14.9, 13.0, 11.1 13.17 28, 38, 43, 45 (Avg:42)
148 Karen Fields Cattalina 8 7:38:54 13.2, 13.6, 12.1 13.07 36, 46, 47, 47 (Avg:46)
134 Alexandra Toft Charlotte te 8 7:38:54 12.4, 14.5, 12.3 13.07 35, 44, 46, 46 (Avg:45)
128 Celeste Shields Mt Eerwah Bay Cavalier 10 7:39:25 13.4, 13.6, 11.7 13.06 33, 38, 39, 44 (Avg:40)
125 Janelle Taylor Calico Jarkamarn 11 8:08:00 12.6, 12.2, 11.9 12.30 28, 40, 40, 55 (Avg:45)
106 Jan Tyrrell Willandra Wind Lancer 12 8:10:31 13.3, 12.4, 10.5 12.23 33, 42, 44, 50 (Avg:45)
142 Jess Langridge Heathfield's Pepsi Max 13 8:25:04 12.4, 11.5, 11.5 11.88 40, 44, 48, 43 (Avg:45)
136 Aurelie Cassin Brookleigh Milo 14 8:36:57 11.1, 12.8, 10.8 11.61 44, 41, 44, 48 (Avg:44)
140 Leigh Ann Sample Brookleigh Elton 15 8:37:04 11.1, 12.7, 10.9 11.60 35, 43, 45, 47 (Avg:45)
137 Malin Olsson Kelkette Park Delatite 16 8:37:08 11.1, 12.8, 10.8 11.60 38, 40, 43, 49 (Avg:44)
132 Danielle Costello Miss Australia te 17 9:44:10 10.9, 10.9, 8.6 10.27 36, 45, 49, 54 (Avg:49)
156 Carla Jones Ramalea Nick Withdrawn L3 0:00:00 - - 30, 35, 39, 39 (Avg:37)
117 Sue Jones Hinterland Hellfire Gall or injury L2 0:00:00 20.5, 18.2 - 29, 41, 40 (Avg:40)
Junior
119 Colleen Krahnen Kalkadoon Shalom 1 5:18:15 16.6, 19.4, 22.6 18.85 38, 50, 51, 51 (Avg:50)
118 Connor Krahnen La Battista Shadow Fax 2 (BC) 5:18:17 16.6, 19.4, 22.6 18.85 35, 44, 42, 42 (Avg:42)
116 Jade Vergis Carnarvon Kasserine Magic 3 5:18:30 16.6, 19.4, 22.5 18.84 29, 39, 41, 44 (Avg:41)
114 Megan Stehouwer Ra Silver Dancer 4 5:23:25 16.5, 19.0, 21.9 18.55 39, 45, 50, 44 (Avg:46)
145 Jorja James Bashan Memphis 5 6:00:52 14.2, 18.5, 19.0 16.63 36, 45, 49, 44 (Avg:46)
147 Aaron Wakeling Kalkadoon Alfresco 6 6:00:53 14.2, 18.5, 19.0 16.63 31, 43, 50, 50 (Avg:47)
143 Brigitte Smith Splendacrest Perfection 7 6:15:25 13.6, 16.1, 21.6 15.98 35, 45, 50, 50 (Avg:48)
146 Hanna Whitehead Cooroora Carmen 7 6:15:25 13.5, 16.2, 21.6 15.98 31, 46, 50, 53 (Avg:49)
144 Charlotte Berrett Follydown Gai Emerald 9 6:15:30 13.5, 16.2, 21.5 15.98 35, 48, 53, 53 (Avg:51)
115 Gemma Sutcliffe Talbarear Rapier 10 6:45:10 14.8, 15.5, 13.8 14.81 34, 47, 46, 46 (Avg:46)
111 Hannah Terry Ra-Anji Diva 10 6:45:10 14.9, 15.3, 13.8 14.81 37, 43, 44, 43 (Avg:43)
163 Pip Ireland Sommariva Malik 12 6:45:14 18.3, 11.6, 15.9 14.81 38, 39, 43, 46 (Avg:42)
161 Bridgett James The Straight Shooter AHA 12 6:45:14 18.3, 11.6, 15.9 14.81 44, 55, 48, 47 (Avg:50)
127 Stirling Shields Indy 14 7:39:19 13.4, 13.7, 11.8 13.06 40, 40, 43, 42 (Avg:41)
110 Alissa Woods Moomba Lodge Bayley 15 7:40:08 12.3, 14.6, 12.1 13.04 35, 49, 46, 46 (Avg:47)
160 Rilene Heydenreich Aphrodite Malakia 16 7:40:35 13.1, 14.1, 11.4 13.03 36, 48, 49, 47 (Avg:48)
135 Tayla Hadzi Briallyn Kirra Bint Zanir 17 8:12:34 12.3, 12.2, 11.7 12.18 36, 48, 50, 51 (Avg:49)
159 Pandora Bevan Tigerlilly 18 8:12:39 12.4, 12.2, 11.7 12.18 47, 40, 47, 43 (Avg:43)
139 Matty Sample Kidaman Ashquar 19 8:37:02 11.1, 12.8, 10.8 11.60 40, 40, 41, 44 (Avg:41)
113 Sarah Huddleston Captains Creek Prancer 20 8:48:06 11.4, 11.4, 11.1 11.36 35, 41, 41, 41 (Avg:41)
141 Lainie Zischke Kelkette Park Silver Edge 21 9:58:29 10.0, 9.5, 10.6 10.03 39, 38, 58, 49 (Avg:48)
131 Brooke Marshall Awarran Park Silver Countess Withdrawn L2 0:00:00 - - 33, 44, 41 (Avg:42)